createdAt,value
2019-01-25T00:00:37.537Z,7.97
2019-01-25T00:03:10.218Z,9.10
2019-01-25T00:05:37.045Z,6.80
2019-01-25T00:08:05.880Z,6.07
2019-01-25T00:10:34.541Z,5.10
2019-01-25T00:13:03.180Z,4.70
2019-01-25T00:15:31.767Z,5.07
2019-01-25T00:18:00.328Z,4.60
2019-01-25T00:20:28.920Z,4.70
2019-01-25T00:22:57.489Z,5.67
2019-01-25T00:25:26.080Z,4.80
2019-01-25T00:27:54.652Z,6.50
2019-01-25T00:30:23.401Z,7.03
2019-01-25T00:32:51.952Z,6.60
2019-01-25T00:35:20.611Z,4.57
2019-01-25T00:37:49.187Z,6.63
2019-01-25T00:40:21.008Z,5.07
2019-01-25T00:42:49.567Z,4.53
2019-01-25T00:45:18.296Z,5.23
2019-01-25T00:47:46.861Z,5.27
2019-01-25T00:50:18.188Z,5.20
2019-01-25T00:52:46.892Z,4.87
2019-01-25T00:55:15.476Z,4.73
2019-01-25T00:57:44.184Z,5.23
2019-01-25T01:00:18.807Z,5.50
2019-01-25T01:02:47.512Z,5.70
2019-01-25T01:05:16.434Z,5.70
2019-01-25T01:07:45.516Z,4.50
2019-01-25T01:10:14.753Z,5.00
2019-01-25T01:12:43.318Z,5.87
2019-01-25T01:15:14.115Z,7.17
2019-01-25T01:17:42.824Z,9.87
2019-01-25T01:20:14.164Z,10.27
2019-01-25T01:22:42.735Z,10.57
2019-01-25T01:25:12.955Z,9.60
2019-01-25T01:27:41.524Z,9.93
2019-01-25T01:30:13.191Z,9.60
2019-01-25T01:32:41.767Z,10.87
2019-01-25T01:35:10.428Z,12.07
2019-01-25T01:37:39.004Z,15.10
2019-01-25T01:40:13.561Z,14.23
2019-01-25T01:42:42.135Z,14.20
2019-01-25T01:45:10.896Z,12.70
2019-01-25T01:47:39.473Z,15.70
2019-01-25T01:50:11.172Z,14.53
2019-01-25T01:52:39.756Z,15.17
2019-01-25T01:55:08.497Z,16.43
2019-01-25T01:57:37.069Z,15.93
2019-01-25T02:00:14.918Z,17.90
2019-01-25T02:02:43.497Z,19.50
2019-01-25T02:05:12.260Z,15.93
2019-01-25T02:07:40.900Z,18.27
2019-01-25T02:10:15.296Z,16.27
2019-01-25T02:12:43.948Z,15.70
2019-01-25T02:15:15.549Z,12.70
2019-01-25T02:17:44.265Z,10.53
2019-01-25T02:20:24.047Z,11.17
2019-01-25T02:22:52.788Z,12.20
2019-01-25T02:25:21.450Z,10.13
2019-01-25T02:27:50.019Z,10.17
2019-01-25T02:30:23.473Z,5.73
2019-01-25T02:32:52.052Z,8.40
2019-01-25T02:35:20.647Z,7.43
2019-01-25T02:37:49.284Z,9.20
2019-01-25T02:40:20.684Z,6.30
2019-01-25T02:42:49.518Z,5.17
2019-01-25T02:45:18.548Z,11.43
2019-01-25T02:47:47.103Z,9.33
2019-01-25T02:50:18.106Z,11.40
2019-01-25T02:52:46.744Z,11.20
2019-01-25T02:55:16.540Z,12.97
2019-01-25T02:57:45.339Z,7.17
2019-01-25T03:00:19.354Z,6.30
2019-01-25T03:02:48.653Z,5.53
2019-01-25T03:05:18.646Z,4.93
2019-01-25T03:07:47.376Z,5.20
2019-01-25T03:10:17.383Z,4.67
2019-01-25T03:12:45.982Z,4.20
2019-01-25T03:15:19.492Z,6.00
2019-01-25T03:17:48.243Z,4.53
2019-01-25T03:20:17.653Z,4.87
2019-01-25T03:22:46.246Z,5.47
2019-01-25T03:25:17.917Z,7.83
2019-01-25T03:27:46.503Z,6.37
2019-01-25T03:30:20.385Z,8.80
2019-01-25T03:32:49.053Z,7.70
2019-01-25T03:35:19.857Z,13.00
2019-01-25T03:37:48.525Z,10.07
2019-01-25T03:40:37.967Z,11.53
2019-01-25T03:43:06.534Z,10.03
2019-01-25T03:45:35.104Z,9.77
2019-01-25T03:48:03.766Z,9.93
2019-01-25T03:50:32.402Z,10.63
2019-01-25T03:53:00.992Z,10.83
2019-01-25T03:55:29.553Z,8.07
2019-01-25T03:57:58.152Z,10.43
2019-01-25T04:00:28.456Z,8.90
2019-01-25T04:02:57.053Z,10.77
2019-01-25T04:05:25.626Z,8.23
2019-01-25T04:07:54.284Z,7.83
2019-01-25T04:10:25.392Z,5.77
2019-01-25T04:12:53.980Z,7.63
2019-01-25T04:15:25.502Z,8.73
2019-01-25T04:17:54.140Z,9.70
2019-01-25T04:20:23.749Z,12.30
2019-01-25T04:22:52.481Z,18.67
2019-01-25T04:25:22.436Z,16.07
2019-01-25T04:27:51.419Z,21.67
2019-01-25T04:30:22.600Z,21.57
2019-01-25T04:32:51.369Z,11.60
2019-01-25T04:35:20.079Z,16.57
2019-01-25T04:37:48.669Z,19.47
2019-01-25T04:40:18.481Z,24.63
2019-01-25T04:42:47.147Z,15.17
2019-01-25T04:45:17.855Z,15.47
2019-01-25T04:47:46.587Z,11.80
2019-01-25T04:50:22.992Z,21.87
2019-01-25T04:52:52.120Z,14.37
2019-01-25T04:55:26.208Z,8.73
2019-01-25T04:57:54.799Z,15.90
2019-01-25T05:00:24.512Z,11.53
2019-01-25T05:02:58.080Z,10.70
2019-01-25T05:05:27.518Z,15.30
2019-01-25T05:08:10.617Z,15.40
2019-01-25T05:10:39.182Z,12.33
2019-01-25T05:13:07.832Z,9.60
2019-01-25T05:15:36.471Z,10.10
2019-01-25T05:18:05.632Z,13.37
2019-01-25T05:20:34.203Z,22.03
2019-01-25T05:23:05.100Z,13.43
2019-01-25T05:25:33.806Z,13.03
2019-01-25T05:28:16.507Z,13.57
2019-01-25T05:30:53.523Z,12.87
2019-01-25T05:33:22.142Z,14.73
2019-01-25T05:35:50.763Z,12.90
2019-01-25T05:38:19.360Z,13.30
2019-01-25T05:40:47.936Z,19.13
2019-01-25T05:43:16.528Z,11.80
2019-01-25T05:45:46.144Z,9.87
2019-01-25T05:48:14.821Z,13.27
2019-01-25T05:50:43.460Z,10.07
2019-01-25T05:53:12.124Z,10.00
2019-01-25T05:55:40.691Z,9.40
2019-01-25T05:58:10.628Z,18.73
2019-01-25T06:00:43.740Z,12.63
2019-01-25T06:03:14.172Z,11.53
2019-01-25T06:05:42.899Z,9.03
2019-01-25T06:08:29.918Z,10.10
2019-01-25T06:11:00.787Z,22.60
2019-01-25T06:13:29.375Z,12.53
2019-01-25T06:15:57.952Z,19.33
2019-01-25T06:18:26.606Z,9.93
2019-01-25T06:20:56.807Z,7.70
2019-01-25T06:23:25.472Z,7.80
2019-01-25T06:25:55.787Z,10.87
2019-01-25T06:28:24.647Z,15.80
2019-01-25T06:30:53.351Z,16.97
2019-01-25T06:33:22.059Z,14.43
2019-01-25T06:35:50.584Z,8.73
2019-01-25T06:38:19.315Z,18.00
2019-01-25T06:40:47.884Z,17.43
2019-01-25T06:43:16.476Z,22.60
2019-01-25T06:45:45.044Z,12.87
2019-01-25T06:48:13.771Z,9.10
2019-01-25T06:50:42.412Z,7.17
2019-01-25T06:53:10.999Z,8.33
2019-01-25T06:55:39.572Z,13.23
2019-01-25T06:58:24.856Z,19.33
2019-01-25T07:01:01.277Z,17.20
2019-01-25T07:03:29.953Z,14.67
2019-01-25T07:05:58.520Z,10.33
2019-01-25T07:08:27.107Z,11.80
2019-01-25T07:10:55.677Z,21.20
2019-01-25T07:13:24.276Z,23.17
2019-01-25T07:15:52.848Z,14.63
2019-01-25T07:18:21.441Z,9.93
2019-01-25T07:20:50.008Z,8.87
2019-01-25T07:23:18.599Z,10.50
2019-01-25T07:25:47.171Z,10.40
2019-01-25T07:28:15.767Z,17.10
2019-01-25T07:30:44.336Z,11.37
2019-01-25T07:33:12.933Z,12.83
2019-01-25T07:35:41.508Z,16.17
2019-01-25T07:38:10.088Z,13.33
2019-01-25T07:40:38.657Z,9.80
2019-01-25T07:43:07.244Z,10.90
2019-01-25T07:45:35.845Z,10.37
2019-01-25T07:48:04.750Z,9.33
2019-01-25T07:50:33.376Z,8.83
2019-01-25T07:53:02.049Z,18.07
2019-01-25T07:55:30.666Z,9.47
2019-01-25T07:57:59.215Z,14.77
2019-01-25T08:00:28.041Z,15.10
2019-01-25T08:02:56.681Z,10.50
2019-01-25T08:05:25.204Z,14.80
2019-01-25T08:07:53.798Z,17.33
2019-01-25T08:10:23.124Z,17.27
2019-01-25T08:12:51.718Z,11.83
2019-01-25T08:15:27.907Z,20.70
2019-01-25T08:17:56.568Z,13.77
2019-01-25T08:20:25.140Z,13.93
2019-01-25T08:22:53.809Z,17.87
2019-01-25T08:25:22.376Z,23.83
2019-01-25T08:27:50.990Z,19.67
2019-01-25T08:30:23.682Z,16.73
2019-01-25T08:32:52.320Z,22.40
2019-01-25T08:35:21.505Z,18.67
2019-01-25T08:37:50.684Z,19.73
2019-01-25T08:40:19.629Z,21.17
2019-01-25T08:42:48.355Z,23.80
2019-01-25T08:45:19.016Z,21.77
2019-01-25T08:47:47.636Z,27.40
2019-01-25T08:50:21.864Z,26.33
2019-01-25T08:52:50.523Z,30.13
2019-01-25T08:55:21.311Z,28.43
2019-01-25T08:57:49.317Z,29.20
2019-01-25T09:00:25.936Z,26.10
2019-01-25T09:02:54.576Z,28.67
2019-01-25T09:05:23.241Z,27.87
2019-01-25T09:07:51.887Z,32.03
2019-01-25T09:10:25.348Z,22.53
2019-01-25T09:12:53.915Z,29.20
2019-01-25T09:15:25.355Z,27.60
2019-01-25T09:17:53.923Z,20.57
2019-01-25T09:20:22.852Z,22.43
2019-01-25T09:22:51.591Z,26.07
2019-01-25T09:25:20.311Z,17.23
2019-01-25T09:27:48.823Z,26.00
2019-01-25T09:30:19.859Z,17.53
2019-01-25T09:32:48.583Z,15.37
2019-01-25T09:35:17.900Z,29.87
2019-01-25T09:37:46.544Z,26.90
2019-01-25T09:40:22.225Z,20.13
2019-01-25T09:42:51.541Z,25.77
2019-01-25T09:45:20.476Z,15.47
2019-01-25T09:47:49.053Z,23.30
2019-01-25T09:50:19.583Z,29.60
2019-01-25T09:52:48.223Z,36.47
2019-01-25T09:55:24.964Z,32.10
2019-01-25T09:57:56.435Z,26.17
2019-01-25T10:00:28.377Z,33.33
2019-01-25T10:02:56.944Z,32.00
2019-01-25T10:05:25.542Z,30.43
2019-01-25T10:07:54.188Z,30.23
2019-01-25T10:10:22.781Z,25.63
2019-01-25T10:12:51.343Z,27.37
2019-01-25T10:15:23.936Z,31.10
2019-01-25T10:17:52.648Z,22.43
2019-01-25T10:20:21.383Z,26.07
2019-01-25T10:22:49.951Z,30.60
2019-01-25T10:25:18.543Z,33.60
2019-01-25T10:27:47.322Z,33.20
2019-01-25T10:30:24.917Z,33.80
2019-01-25T10:32:53.484Z,30.50
2019-01-25T10:35:22.715Z,26.20
2019-01-25T10:37:52.324Z,28.67
2019-01-25T10:40:22.555Z,29.77
2019-01-25T10:42:53.266Z,28.77
2019-01-25T10:45:30.912Z,29.20
2019-01-25T10:47:59.478Z,32.43
2019-01-25T10:50:28.072Z,20.60
2019-01-25T10:52:56.912Z,26.90
2019-01-25T10:55:25.579Z,23.23
2019-01-25T10:57:54.519Z,26.70
2019-01-25T11:00:23.372Z,21.63
2019-01-25T11:02:57.926Z,29.30
2019-01-25T11:05:27.062Z,18.00
2019-01-25T11:07:55.638Z,30.93
2019-01-25T11:10:24.460Z,30.73
2019-01-25T11:13:00.517Z,18.50
2019-01-25T11:15:24.717Z,25.70
2019-01-25T11:17:53.289Z,25.13
2019-01-25T11:20:24.123Z,33.27
2019-01-25T11:22:53.127Z,33.63
2019-01-25T11:25:24.823Z,27.20
2019-01-25T11:27:53.396Z,28.97
2019-01-25T11:30:21.993Z,21.33
2019-01-25T11:32:50.568Z,28.93
2019-01-25T11:35:19.164Z,27.90
2019-01-25T11:37:47.806Z,26.30
2019-01-25T11:40:19.476Z,31.20
2019-01-25T11:42:48.048Z,32.70
2019-01-25T11:45:16.636Z,32.93
2019-01-25T11:47:45.277Z,29.00
2019-01-25T11:50:16.308Z,23.87
2019-01-25T11:52:44.959Z,23.87
2019-01-25T11:55:15.380Z,23.93
2019-01-25T11:57:44.119Z,23.00
2019-01-25T12:00:21.836Z,28.13
2019-01-25T12:02:50.406Z,28.47
2019-01-25T12:05:21.130Z,19.17
2019-01-25T12:07:49.843Z,23.97
2019-01-25T12:10:21.183Z,24.77
2019-01-25T12:12:49.751Z,25.80
2019-01-25T12:15:18.343Z,19.23
2019-01-25T12:17:46.914Z,26.60
2019-01-25T12:20:26.857Z,20.27
2019-01-25T12:22:55.594Z,22.13
2019-01-25T12:25:24.324Z,22.47
2019-01-25T12:27:52.977Z,22.83
2019-01-25T12:30:27.223Z,24.07
2019-01-25T12:32:55.796Z,22.90
2019-01-25T12:35:25.428Z,22.23
2019-01-25T12:37:54.000Z,18.20
2019-01-25T12:40:22.683Z,15.97
2019-01-25T12:42:51.243Z,19.20
2019-01-25T12:45:25.841Z,19.00
2019-01-25T12:47:54.422Z,21.83
2019-01-25T12:50:32.274Z,22.60
2019-01-25T12:53:02.188Z,21.53
2019-01-25T12:55:32.720Z,27.37
2019-01-25T12:58:00.995Z,25.20
2019-01-25T13:00:30.528Z,28.37
2019-01-25T13:02:59.105Z,27.00
2019-01-25T13:05:27.772Z,21.90
2019-01-25T13:07:56.343Z,17.03
2019-01-25T13:10:26.784Z,19.27
2019-01-25T13:12:55.420Z,22.43
2019-01-25T13:15:24.140Z,26.67
2019-01-25T13:17:52.716Z,22.40
2019-01-25T13:20:26.931Z,19.67
2019-01-25T13:22:55.680Z,21.50
2019-01-25T13:25:24.353Z,23.50
2019-01-25T13:27:53.069Z,25.13
2019-01-25T13:30:32.493Z,26.10
2019-01-25T13:33:01.221Z,18.10
2019-01-25T13:35:29.879Z,18.03
2019-01-25T13:37:58.451Z,19.63
2019-01-25T13:40:28.285Z,21.67
2019-01-25T13:42:56.918Z,19.30
2019-01-25T13:45:25.659Z,23.60
2019-01-25T13:47:54.597Z,20.93
2019-01-25T13:50:30.453Z,23.93
2019-01-25T13:52:59.083Z,21.00
2019-01-25T13:55:27.675Z,17.90
2019-01-25T13:57:56.255Z,16.53
2019-01-25T14:00:33.344Z,18.70
2019-01-25T14:03:01.919Z,19.83
2019-01-25T14:05:30.592Z,17.17
2019-01-25T14:07:59.159Z,18.37
2019-01-25T14:10:35.851Z,17.20
2019-01-25T14:13:05.261Z,17.97
2019-01-25T14:15:34.601Z,18.60
2019-01-25T14:18:03.309Z,22.70
2019-01-25T14:20:33.128Z,19.27
2019-01-25T14:23:01.719Z,17.47
2019-01-25T14:25:30.755Z,15.80
2019-01-25T14:27:59.482Z,18.10
2019-01-25T14:30:31.092Z,17.87
2019-01-25T14:32:59.723Z,15.13
2019-01-25T14:35:28.496Z,18.60
2019-01-25T14:37:57.084Z,18.90
2019-01-25T14:40:25.723Z,14.30
2019-01-25T14:42:54.320Z,15.73
2019-01-25T14:45:22.969Z,15.67
2019-01-25T14:47:51.647Z,16.80
2019-01-25T14:50:25.607Z,15.53
2019-01-25T14:52:54.196Z,15.17
2019-01-25T14:55:22.765Z,20.73
2019-01-25T14:57:51.432Z,21.13
2019-01-25T15:00:19.999Z,18.67
2019-01-25T15:02:48.660Z,18.20
2019-01-25T15:05:18.667Z,17.73
2019-01-25T15:07:47.260Z,16.00
2019-01-25T15:10:20.736Z,18.33
2019-01-25T15:12:50.263Z,14.03
2019-01-25T15:15:18.831Z,18.33
2019-01-25T15:17:47.495Z,21.17
2019-01-25T15:20:18.882Z,17.57
2019-01-25T15:22:47.748Z,20.33
2019-01-25T15:25:16.453Z,21.33
2019-01-25T15:27:45.187Z,15.03
2019-01-25T15:30:17.001Z,21.30
2019-01-25T15:32:45.663Z,17.10
2019-01-25T15:35:16.276Z,20.37
2019-01-25T15:37:44.868Z,17.03
2019-01-25T15:40:15.884Z,17.13
2019-01-25T15:42:44.580Z,20.40
2019-01-25T15:45:15.787Z,21.63
2019-01-25T15:47:44.373Z,22.87
2019-01-25T15:50:16.151Z,18.60
2019-01-25T15:52:44.743Z,21.73
2019-01-25T15:55:13.750Z,18.77
2019-01-25T15:57:42.344Z,20.70
2019-01-25T16:00:13.521Z,21.23
2019-01-25T16:02:42.179Z,21.13
2019-01-25T16:05:13.398Z,24.27
2019-01-25T16:07:42.060Z,21.03
2019-01-25T16:10:13.172Z,19.17
2019-01-25T16:12:41.761Z,21.57
2019-01-25T16:15:13.231Z,17.77
2019-01-25T16:17:41.888Z,19.07
2019-01-25T16:20:15.734Z,21.10
2019-01-25T16:22:44.329Z,22.93
2019-01-25T16:25:18.864Z,22.80
2019-01-25T16:27:47.462Z,21.53
2019-01-25T16:30:21.327Z,21.47
2019-01-25T16:32:49.921Z,22.90
2019-01-25T16:35:18.560Z,25.13
2019-01-25T16:37:47.152Z,25.37
2019-01-25T16:40:18.165Z,19.67
2019-01-25T16:42:46.828Z,17.67
2019-01-25T16:45:20.756Z,17.60
2019-01-25T16:47:49.333Z,22.80
2019-01-25T16:50:23.660Z,18.73
2019-01-25T16:52:48.298Z,19.07
2019-01-25T16:55:17.089Z,18.57
2019-01-25T16:57:45.847Z,18.53
2019-01-25T17:00:20.599Z,18.97
2019-01-25T17:02:49.191Z,13.67
2019-01-25T17:05:18.103Z,15.73
2019-01-25T17:07:46.695Z,19.20
2019-01-25T17:10:16.603Z,14.80
2019-01-25T17:12:45.336Z,20.27
2019-01-25T17:15:16.047Z,23.23
2019-01-25T17:17:44.704Z,19.23
2019-01-25T17:20:21.322Z,23.97
2019-01-25T17:22:48.751Z,28.03
2019-01-25T17:25:17.392Z,32.70
2019-01-25T17:27:46.121Z,17.73
2019-01-25T17:30:23.532Z,19.00
2019-01-25T17:32:53.263Z,24.20
2019-01-25T17:35:21.831Z,21.53
2019-01-25T17:37:50.693Z,15.77
2019-01-25T17:40:21.929Z,22.53
2019-01-25T17:42:50.688Z,25.33
2019-01-25T17:45:19.322Z,20.50
2019-01-25T17:47:47.916Z,21.43
2019-01-25T17:50:16.759Z,16.33
2019-01-25T17:52:45.343Z,16.33
2019-01-25T17:55:15.959Z,16.43
2019-01-25T17:57:44.540Z,18.83
2019-01-25T18:00:28.347Z,17.80
2019-01-25T18:02:57.012Z,18.90
2019-01-25T18:05:25.735Z,15.80
2019-01-25T18:07:54.471Z,19.80
2019-01-25T18:10:24.879Z,20.10
2019-01-25T18:12:53.612Z,18.57
2019-01-25T18:15:22.204Z,19.13
2019-01-25T18:17:50.795Z,13.43
2019-01-25T18:20:21.405Z,19.50
2019-01-25T18:22:49.997Z,19.67
2019-01-25T18:25:30.531Z,20.97
2019-01-25T18:28:02.035Z,20.83
2019-01-25T18:30:36.780Z,19.83
2019-01-25T18:33:05.439Z,20.17
2019-01-25T18:35:34.012Z,20.20
2019-01-25T18:38:02.600Z,21.47
2019-01-25T18:40:31.171Z,21.50
2019-01-25T18:42:59.815Z,20.93
2019-01-25T18:45:29.955Z,22.23
2019-01-25T18:47:58.553Z,21.63
2019-01-25T18:50:27.115Z,21.20
2019-01-25T18:52:55.707Z,21.27
2019-01-25T18:55:25.726Z,21.07
2019-01-25T18:57:54.320Z,21.27
2019-01-25T19:00:23.346Z,20.10
2019-01-25T19:02:52.000Z,20.57
2019-01-25T19:05:20.651Z,19.07
2019-01-25T19:07:49.244Z,19.60
2019-01-25T19:10:23.904Z,20.37
2019-01-25T19:12:52.831Z,20.57
2019-01-25T19:15:24.847Z,19.67
2019-01-25T19:17:53.420Z,20.70
2019-01-25T19:20:22.025Z,19.00
2019-01-25T19:22:50.600Z,19.83
2019-01-25T19:25:19.363Z,18.80
2019-01-25T19:27:48.079Z,20.07
2019-01-25T19:30:20.551Z,20.10
2019-01-25T19:32:49.205Z,18.87
2019-01-25T19:35:17.927Z,18.00
2019-01-25T19:37:46.567Z,17.70
2019-01-25T19:40:21.815Z,16.87
2019-01-25T19:42:50.464Z,19.03
2019-01-25T19:45:19.395Z,15.47
2019-01-25T19:47:48.025Z,17.63
2019-01-25T19:50:19.155Z,20.23
2019-01-25T19:52:48.034Z,16.57
2019-01-25T19:55:19.788Z,18.20
2019-01-25T19:57:48.563Z,14.93
2019-01-25T20:00:20.596Z,18.53
2019-01-25T20:02:49.227Z,16.30
2019-01-25T20:05:23.508Z,17.80
2019-01-25T20:07:52.387Z,17.40
2019-01-25T20:10:21.453Z,19.13
2019-01-25T20:12:50.675Z,17.67
2019-01-25T20:15:24.154Z,18.77
2019-01-25T20:17:52.885Z,18.87
2019-01-25T20:20:24.088Z,18.70
2019-01-25T20:22:52.726Z,18.30
2019-01-25T20:25:21.491Z,19.30
2019-01-25T20:27:50.094Z,19.73
2019-01-25T20:30:24.372Z,18.90
2019-01-25T20:32:52.944Z,21.83
2019-01-25T20:35:24.440Z,20.63
2019-01-25T20:37:53.151Z,20.10
2019-01-25T20:40:22.188Z,20.97
2019-01-25T20:42:50.919Z,19.40
2019-01-25T20:45:31.491Z,20.10
2019-01-25T20:48:00.075Z,19.83
2019-01-25T20:50:30.903Z,19.47
2019-01-25T20:52:59.846Z,17.50
2019-01-25T20:55:28.579Z,19.67
2019-01-25T20:57:58.303Z,18.17
2019-01-25T21:00:34.845Z,19.10
2019-01-25T21:03:03.787Z,17.33
2019-01-25T21:05:32.521Z,18.10
2019-01-25T21:08:01.165Z,18.83
2019-01-25T21:10:29.891Z,16.97
2019-01-25T21:12:58.722Z,17.00
2019-01-25T21:15:35.028Z,17.93
2019-01-25T21:17:59.203Z,18.10
2019-01-25T21:20:36.628Z,16.67
2019-01-25T21:23:06.041Z,18.13
2019-01-25T21:25:34.705Z,17.97
2019-01-25T21:28:04.399Z,17.53
2019-01-25T21:30:35.055Z,17.30
2019-01-25T21:33:03.867Z,17.50
2019-01-25T21:35:32.531Z,16.33
2019-01-25T21:38:01.184Z,16.90
2019-01-25T21:40:31.714Z,17.13
2019-01-25T21:43:00.293Z,16.37
2019-01-25T21:45:31.213Z,17.77
2019-01-25T21:47:59.922Z,16.03
2019-01-25T21:50:37.309Z,17.97
2019-01-25T21:53:06.040Z,16.30
2019-01-25T21:55:34.631Z,16.63
2019-01-25T21:58:05.443Z,17.30
2019-01-25T22:00:35.383Z,16.83
2019-01-25T22:03:05.028Z,18.50
2019-01-25T22:05:33.619Z,17.80
2019-01-25T22:08:02.260Z,16.97
2019-01-25T22:10:33.799Z,18.10
2019-01-25T22:13:02.368Z,17.53
2019-01-25T22:15:30.963Z,18.23
2019-01-25T22:17:59.540Z,18.30
2019-01-25T22:20:29.878Z,18.73
2019-01-25T22:22:58.516Z,17.37
2019-01-25T22:25:27.176Z,17.07
2019-01-25T22:27:56.479Z,19.43
2019-01-25T22:30:29.088Z,19.37
2019-01-25T22:32:57.730Z,20.50
2019-01-25T22:35:26.461Z,19.60
2019-01-25T22:37:55.102Z,20.17
2019-01-25T22:40:25.732Z,19.00
2019-01-25T22:42:54.370Z,20.20
2019-01-25T22:45:25.203Z,19.80
2019-01-25T22:47:53.775Z,21.57
2019-01-25T22:50:24.803Z,23.70
2019-01-25T22:52:53.513Z,19.43
2019-01-25T22:55:23.143Z,20.17
2019-01-25T22:57:52.085Z,22.10
2019-01-25T23:00:46.436Z,21.40
2019-01-25T23:03:17.302Z,20.43
2019-01-25T23:06:11.547Z,21.97
2019-01-25T23:08:40.119Z,22.73
2019-01-25T23:11:08.884Z,22.63
2019-01-25T23:13:37.452Z,22.97
2019-01-25T23:16:06.718Z,23.93
2019-01-25T23:18:35.255Z,25.20
2019-01-25T23:21:03.910Z,24.37
2019-01-25T23:23:32.484Z,25.70
2019-01-25T23:26:01.075Z,25.23
2019-01-25T23:28:29.648Z,22.83
2019-01-25T23:30:58.306Z,25.70
2019-01-25T23:33:26.879Z,24.30
2019-01-25T23:35:55.499Z,24.87
2019-01-25T23:38:24.059Z,26.50
2019-01-25T23:40:52.644Z,24.17
2019-01-25T23:43:21.220Z,24.30
2019-01-25T23:45:49.811Z,28.80
2019-01-25T23:48:18.379Z,26.07
2019-01-25T23:50:46.975Z,26.40
2019-01-25T23:53:15.543Z,24.40
2019-01-25T23:55:44.140Z,25.63
2019-01-25T23:58:12.706Z,26.17
